KOXRKBFL

Guest
Details From KOXR - Oxnard
To KBFL - MEADOWS FLD
Flight Number -
Tags generated
Created
Modified
Stats Distance 74 nm / 138 km
Max Altitude 9,900 ft / 3,018 m
Waypoints 3
Social Downloads 0
Likes 0
Share VATSIM

Download

Looking for another format? Having issues loading an existing format? Contact us
Advertisement - Login to hide

Notes

Basic altitude profile: - Ascent Rate: 2500ft/min - Ascent Speed: 250kts - Cruise Altitude: 35000ft - Cruise Speed: 420kts - Descent Rate: 1500ft/min - Descent Speed: 250kts Options: - Use NATs: yes - Use PACOTS: yes - Use low airways: yes - Use high airways: no

Route

KOXR REYES KBFL

ID Type Via Altitude Latitude Longitude Leg Dist Tot Dist Heading (true) Name
O KOXR APT - 0 ft / 0 m 34.20082˚ -119.20723˚ - 0 nm - Oxnard
REYES FIX - 9,900 ft / 3,018 m 34.65873˚ -119.13432˚ 27 nm 27 nm 7° / 8° -
O KBFL APT - 0 ft / 0 m 35.43349˚ -119.05751˚ 46 nm 74 nm 5° / 5° MEADOWS FLD

Altitude Profile

Advertisement - Login to hide

KOXR

Details ICAO KOXR (OXR)
Name Oxnard
Region United States
Timezone America/Los_Angeles (UTC-8.0)
Stats Elevation 43 ft / 13 m (AMSL)
Location 34.200819° -119.207233°
Runways 1
Magnetic Variation 12.210° E

METAR

KOXR 170751Z AUTO 08008KT 8SM FU CLR 09/04 A2980 RMK AO2 SLP091 T00940039 401780089

Decode

TAF

TAF KOXR 170546Z 1706/1806 05007KT 6SM FU SKC WS020/04030KT FM170900 05015G25KT P6SM SKC WS020/04040KT FM171500 06022G32KT P6SM SKC FM172200 07015G25KT P6SM SKC FM180100 05008KT P6SM SKC

Decode

Departure Runways

ID Width Length Bearing (true) Bearing (mag) Surface Threshold Offset Overrun Length
07 98 ft / 30 m 5,953 ft / 1,815 m 90.53° 78.32° Asphalt 0 ft / 0 m 0 ft / 0 m
25 98 ft / 30 m 5,953 ft / 1,815 m 270.54° 258.33° Asphalt 1,378 ft / 420 m 0 ft / 0 m

KBFL

Details ICAO KBFL (BFL)
Name MEADOWS FLD
Region United States
Timezone America/Los_Angeles (UTC-8.0)
Stats Elevation 507 ft / 155 m (AMSL)
Location 35.433486° -119.057509°
Runways 2
Magnetic Variation 12.429° E

METAR

KBFL 170754Z AUTO 00000KT 9SM CLR 07/M01 A2996 RMK AO2 SLP145 T00721011 401500056

Decode

TAF

TAF KBFL 170520Z 1706/1806 VRB04KT P6SM SKC TEMPO 1714/1718 3SM HZ

Decode

Destination Runways

ID Width Length Bearing (true) Bearing (mag) Surface Threshold Offset Overrun Length
12L 151 ft / 46 m 10,865 ft / 3,312 m 135.44° 123.01° Asphalt 0 ft / 0 m 200 ft / 61 m
12R 98 ft / 30 m 7,710 ft / 2,350 m 135.45° 123.02° Asphalt 0 ft / 0 m 0 ft / 0 m
30L 98 ft / 30 m 7,710 ft / 2,350 m 315.46° 303.03° Asphalt 3,383 ft / 1,031 m 0 ft / 0 m
30R 151 ft / 46 m 10,865 ft / 3,312 m 315.46° 303.03° Asphalt 3,428 ft / 1,045 m 801 ft / 244 m

Approach Navaids

Runway Type Ident Frequency Range Bearing (true) Bearing (mag) Slope Elevation
30R Localiser IBFL 111.90 MHz 18 nm / 33 km 315.44° 303.01° - 476 ft / 145 m (AMSL)
30R Glidescope IBFL 111.90 MHz 10 nm / 19 km 315.45° 303.02° 3.00° 476 ft / 145 m (AMSL)
30R DME IBFL 111.90 MHz 18 nm / 33 km - - - 507 ft / 155 m (AMSL)